Time;durP1;ratioP1;P1;durP2;ratioP2;P2;SDS_P1;SDS_P2;PMS_P1;PMS_P2;Temp;Humidity;BMP_temperature;BMP_pressure;BME280_temperature;BME280_humidity;BME280_pressure;Samples;Min_cycle;Max_cycle;Signal;HPM_P1;HPM_P2
2024/04/10 00:00:47;;;;;;;11.40;6.75;;;;;;;16.05;49.19;99711.34;5379434;26;20065;-26
2024/04/10 00:03:16;;;;;;;12.65;6.85;;;;;;;16.14;49.00;99716.09;5379824;26;20007;-26
2024/04/10 00:05:57;;;;;;;11.73;6.28;;;;;;;16.14;49.23;99708.03;5379727;26;20030;-26
2024/04/10 00:08:22;;;;;;;13.57;6.22;;;;;;;16.07;49.70;99701.19;5379633;26;20004;-26
2024/04/10 00:10:48;;;;;;;14.60;6.97;;;;;;;16.21;49.03;99700.66;5379957;26;19996;-27
2024/04/10 00:13:15;;;;;;;12.30;5.65;;;;;;;16.30;48.90;99700.28;5381801;26;20443;-26
2024/04/10 00:15:40;;;;;;;6.78;4.93;;;;;;;16.27;48.22;99696.19;5382576;26;20028;-26
2024/04/10 00:18:06;;;;;;;9.55;4.80;;;;;;;16.25;48.07;99700.97;5382529;26;19996;-26
2024/04/10 00:20:31;;;;;;;7.88;4.90;;;;;;;16.14;48.31;99697.28;5383031;26;19996;-26
2024/04/10 00:22:57;;;;;;;9.68;5.80;;;;;;;16.03;49.84;99704.34;5382285;26;20011;-26
2024/04/10 00:25:22;;;;;;;10.68;6.05;;;;;;;16.03;49.92;99695.50;5381269;26;20332;-26
2024/04/10 00:27:47;;;;;;;12.35;5.90;;;;;;;16.06;49.95;99702.25;5382389;26;20041;-26
2024/04/10 00:30:13;;;;;;;15.10;5.50;;;;;;;15.95;50.08;99701.22;5382525;26;20336;-26
2024/04/10 00:32:38;;;;;;;8.38;5.53;;;;;;;15.94;49.74;99705.78;5382096;26;20028;-26
2024/04/10 00:35:04;;;;;;;11.25;5.07;;;;;;;15.96;49.39;99706.38;5382107;26;20003;-27
2024/04/10 00:37:30;;;;;;;8.30;5.10;;;;;;;15.85;49.54;99703.75;5382628;26;20065;-26
2024/04/10 00:39:55;;;;;;;8.75;5.47;;;;;;;15.82;49.52;99703.16;5381080;26;19992;-26
2024/04/10 00:42:22;;;;;;;9.57;5.00;;;;;;;15.78;49.58;99703.88;5380643;26;19996;-26
2024/04/10 00:44:56;;;;;;;14.18;5.28;;;;;;;15.68;50.01;99704.44;5382542;26;19996;-26
2024/04/10 00:47:23;;;;;;;9.25;5.82;;;;;;;15.65;50.99;99713.00;5382573;26;19996;-26
2024/04/10 00:49:49;;;;;;;13.45;5.63;;;;;;;15.79;50.57;99700.13;5382182;26;19997;-26
2024/04/10 00:52:15;;;;;;;11.65;5.53;;;;;;;15.81;50.41;99706.06;5382461;26;19992;-26
2024/04/10 00:54:43;;;;;;;11.27;5.15;;;;;;;15.86;49.93;99705.34;5382503;26;20007;-26
2024/04/10 00:57:09;;;;;;;10.70;5.05;;;;;;;15.87;49.61;99704.31;5382716;26;20333;-26
2024/04/10 00:59:34;;;;;;;9.13;5.47;;;;;;;15.83;49.78;99698.59;5382595;26;20015;-26
2024/04/10 01:02:00;;;;;;;11.98;5.75;;;;;;;15.85;49.19;99703.75;5382175;26;20023;-26
2024/04/10 01:04:25;;;;;;;8.45;5.40;;;;;;;15.77;49.58;99704.94;5381677;26;20011;-26
2024/04/10 01:06:51;;;;;;;9.93;5.72;;;;;;;15.65;50.38;99710.31;5383461;26;20339;-26
2024/04/10 01:09:16;;;;;;;10.60;5.90;;;;;;;15.70;50.26;99704.22;5382364;26;19992;-26
2024/04/10 01:11:42;;;;;;;17.90;6.05;;;;;;;15.54;50.79;99700.41;5382252;26;19992;-26
2024/04/10 01:14:07;;;;;;;8.48;5.75;;;;;;;15.52;51.08;99699.84;5381986;26;20025;-26
2024/04/10 01:16:33;;;;;;;10.75;5.72;;;;;;;15.42;51.75;99701.25;5382013;26;20133;-26
2024/04/10 01:18:58;;;;;;;10.63;5.75;;;;;;;15.29;51.85;99695.31;5382025;26;20000;-26
2024/04/10 01:21:23;;;;;;;14.32;6.68;;;;;;;15.38;50.86;99689.38;5381506;26;20011;-26
2024/04/10 01:23:49;;;;;;;11.43;6.70;;;;;;;15.24;51.67;99688.81;5414005;26;20331;-26
2024/04/10 01:26:15;;;;;;;13.25;7.10;;;;;;;15.20;51.84;99686.84;5417215;26;20431;-26
2024/04/10 01:28:40;;;;;;;10.90;6.07;;;;;;;15.34;51.52;99690.88;5418126;26;19999;-26
2024/04/10 01:31:05;;;;;;;15.30;6.10;;;;;;;15.31;52.02;99683.31;5417675;26;19992;-26
2024/04/10 01:33:31;;;;;;;11.32;5.75;;;;;;;15.39;52.16;99682.16;5396837;26;19996;-26
2024/04/10 01:35:56;;;;;;;12.43;6.00;;;;;;;15.39;51.82;99682.16;5381558;26;20335;-26
2024/04/10 01:38:24;;;;;;;11.75;6.40;;;;;;;15.39;51.76;99676.78;5381665;26;20344;-26
2024/04/10 01:40:50;;;;;;;19.27;6.82;;;;;;;15.14;52.19;99675.19;5381976;26;19996;-26
2024/04/10 01:43:16;;;;;;;13.18;6.95;;;;;;;14.97;53.33;99683.13;5380869;26;20350;-26
2024/04/10 01:45:41;;;;;;;13.90;7.22;;;;;;;15.05;53.06;99681.94;5382420;26;19992;-26
2024/04/10 01:48:07;;;;;;;12.85;6.95;;;;;;;15.08;53.11;99683.34;5381976;26;20289;-27
2024/04/10 01:50:33;;;;;;;12.70;6.47;;;;;;;15.15;53.15;99692.88;5381901;26;20039;-26
2024/04/10 01:52:58;;;;;;;15.80;7.15;;;;;;;15.24;52.85;99704.06;5382129;26;19996;-26
2024/04/10 01:55:24;;;;;;;11.48;6.72;;;;;;;15.17;52.51;99703.38;5381233;26;20007;-27
2024/04/10 01:57:49;;;;;;;17.38;6.80;;;;;;;15.00;52.88;99704.09;5381386;26;20391;-26
2024/04/10 02:00:18;;;;;;;9.93;6.75;;;;;;;14.99;52.80;99698.97;5381196;26;20011;-26
2024/04/10 02:02:45;;;;;;;13.15;6.72;;;;;;;14.97;52.25;99693.03;5381080;26;20389;-26
2024/04/10 02:05:11;;;;;;;12.05;6.40;;;;;;;14.95;52.21;99695.94;5381271;26;20020;-27
2024/04/10 02:07:36;;;;;;;15.02;7.30;;;;;;;15.04;52.57;99699.06;5381743;26;19992;-26
2024/04/10 02:10:01;;;;;;;9.55;6.05;;;;;;;15.01;52.86;99692.31;5381358;26;20340;-27
2024/04/10 02:12:27;;;;;;;11.38;6.68;;;;;;;14.99;52.61;99682.91;5379656;26;19992;-24
2024/04/10 02:14:52;;;;;;;13.07;6.55;;;;;;;14.95;52.69;99687.91;5381287;26;20002;-26
2024/04/10 02:17:18;;;;;;;10.30;5.85;;;;;;;14.98;52.39;99683.94;5381639;26;20003;-25
2024/04/10 02:19:44;;;;;;;14.73;6.38;;;;;;;14.97;52.42;99698.38;5380716;26;20012;-26
2024/04/10 02:22:09;;;;;;;11.25;6.15;;;;;;;14.89;52.57;99691.53;5380440;26;20000;-27
2024/04/10 02:24:35;;;;;;;8.25;5.53;;;;;;;14.90;52.14;99689.66;5380887;26;20007;-26
2024/04/10 02:27:00;;;;;;;11.63;5.93;;;;;;;14.97;51.80;99690.34;5380681;26;20028;-26
2024/04/10 02:29:28;;;;;;;11.55;5.63;;;;;;;14.93;51.92;99681.97;5381726;26;19996;-26
2024/04/10 02:31:54;;;;;;;12.50;5.40;;;;;;;14.72;52.66;99674.50;5381044;26;19996;-26
2024/04/10 02:34:19;;;;;;;11.93;5.80;;;;;;;14.56;52.95;99678.63;5380910;26;20318;-26
2024/04/10 02:36:44;;;;;;;11.70;6.15;;;;;;;14.51;53.26;99682.03;5381058;26;20024;-26
2024/04/10 02:39:10;;;;;;;13.77;6.50;;;;;;;14.70;52.88;99679.25;5381457;26;19992;-26
2024/04/10 02:41:36;;;;;;;17.13;7.00;;;;;;;14.60;53.57;99680.69;5380329;26;20343;-27
2024/04/10 02:44:03;;;;;;;10.75;6.10;;;;;;;14.76;52.87;99689.88;5380812;26;19992;-26
2024/04/10 02:46:28;;;;;;;11.73;6.93;;;;;;;14.78;53.02;99693.13;5380459;26;19996;-25
2024/04/10 02:48:54;;;;;;;12.98;7.22;;;;;;;14.73;53.14;99681.47;5380471;26;19996;-26
2024/04/10 02:51:21;;;;;;;11.32;6.43;;;;;;;14.77;52.69;99691.50;5380611;26;20020;-26
2024/04/10 02:53:46;;;;;;;10.75;5.45;;;;;;;14.80;52.54;99691.03;5380051;26;20007;-26
2024/04/10 02:56:12;;;;;;;7.47;5.05;;;;;;;14.81;51.98;99686.50;5380458;26;20003;-26
2024/04/10 02:58:37;;;;;;;9.93;5.32;;;;;;;14.74;52.05;99700.00;5380217;26;20007;-26
2024/04/10 03:01:04;;;;;;;8.90;4.95;;;;;;;14.63;52.06;99684.75;5380101;26;20366;-26
2024/04/10 03:03:29;;;;;;;11.85;5.20;;;;;;;14.67;52.50;99688.59;5380482;26;20003;-27
2024/04/10 03:06:03;;;;;;;11.30;5.25;;;;;;;14.58;52.78;99685.44;5380242;26;20008;-25
2024/04/10 03:08:32;;;;;;;10.57;5.60;;;;;;;14.59;52.30;99680.91;5380691;26;19996;-26
2024/04/10 03:10:57;;;;;;;10.32;5.30;;;;;;;14.72;52.01;99688.72;5380355;26;20029;-26
2024/04/10 03:13:23;;;;;;;9.00;5.18;;;;;;;14.63;51.93;99690.91;5380103;26;20681;-25
2024/04/10 03:15:49;;;;;;;10.90;5.95;;;;;;;14.65;52.24;99688.81;5381033;26;20428;-26
2024/04/10 03:18:15;;;;;;;7.25;5.10;;;;;;;14.61;52.70;99693.00;5379263;26;20074;-26
2024/04/10 03:20:40;;;;;;;7.78;5.07;;;;;;;14.56;52.51;99694.72;5377281;26;20293;-25
2024/04/10 03:23:06;;;;;;;9.63;5.30;;;;;;;14.44;52.58;99698.19;5378185;26;20016;-26
2024/04/10 03:25:33;;;;;;;10.52;5.20;;;;;;;14.40;52.92;99697.00;5379958;26;20006;-25
2024/04/10 03:27:59;;;;;;;12.93;5.05;;;;;;;14.25;53.13;99705.47;5380116;26;20003;-25
2024/04/10 03:30:26;;;;;;;9.13;6.00;;;;;;;14.11;54.13;99700.53;5378384;26;20004;-26
2024/04/10 03:32:54;;;;;;;12.00;6.25;;;;;;;14.02;54.77;99700.84;5377337;26;20224;-26
2024/04/10 03:35:20;;;;;;;9.35;6.07;;;;;;;14.09;54.41;99687.41;5378953;26;20004;-26
2024/04/10 03:37:46;;;;;;;12.55;5.93;;;;;;;14.00;54.98;99700.25;5378171;26;20004;-26
2024/04/10 03:40:11;;;;;;;14.63;6.30;;;;;;;14.07;54.88;99706.34;5378471;26;20005;-25
2024/04/10 03:42:38;;;;;;;8.77;5.70;;;;;;;14.23;53.92;99707.56;5377642;26;20332;-26
2024/04/10 03:45:04;;;;;;;11.38;5.95;;;;;;;14.23;53.92;99712.91;5378585;26;20007;-26
2024/04/10 03:47:30;;;;;;;19.23;12.00;;;;;;;14.42;74.11;99710.16;5378758;26;20038;-25
2024/04/10 03:49:56;;;;;;;17.15;6.90;;;;;;;14.46;58.78;99717.50;5379757;26;20004;-25
2024/04/10 03:52:21;;;;;;;8.30;5.82;;;;;;;14.35;55.13;99720.16;5379403;26;20000;-24
2024/04/10 03:54:47;;;;;;;11.43;5.70;;;;;;;14.28;54.31;99730.97;5378848;26;20346;-26
2024/04/10 03:57:12;;;;;;;10.63;5.95;;;;;;;14.00;54.40;99721.66;5379632;26;20289;-25
2024/04/10 03:59:38;;;;;;;10.18;6.03;;;;;;;14.12;55.28;99736.97;5379456;26;19996;-26
2024/04/10 04:02:03;;;;;;;14.32;6.70;;;;;;;14.29;55.04;99737.94;5380244;26;19996;-26
2024/04/10 04:04:29;;;;;;;16.23;6.30;;;;;;;14.29;55.21;99743.28;5380174;26;19996;-26
2024/04/10 04:06:55;;;;;;;17.52;6.65;;;;;;;14.46;54.99;99738.13;5380551;26;20010;-26
2024/04/10 04:09:21;;;;;;;24.50;6.88;;;;;;;14.60;55.30;99747.63;5380276;26;20070;-27
2024/04/10 04:11:46;;;;;;;17.00;6.53;;;;;;;14.98;54.86;99750.91;5380474;26;20000;-27
2024/04/10 04:14:11;;;;;;;32.03;8.07;;;;;;;15.28;59.41;99755.34;5380175;26;20451;-26
2024/04/10 04:16:37;;;;;;;20.33;7.15;;;;;;;15.36;58.70;99747.75;5380110;26;20622;-27
2024/04/10 04:19:02;;;;;;;17.98;7.10;;;;;;;15.52;53.81;99745.44;5379796;26;20011;-27
2024/04/10 04:21:28;;;;;;;20.40;8.27;;;;;;;16.00;51.55;99760.38;5380456;26;20006;-28
2024/04/10 04:23:54;;;;;;;23.08;7.72;;;;;;;16.19;50.37;99761.00;5366850;26;20104;-27
2024/04/10 04:26:20;;;;;;;20.85;7.88;;;;;;;16.34;50.33;99761.28;5375573;26;20449;-30
2024/04/10 04:28:46;;;;;;;24.23;6.97;;;;;;;16.59;49.85;99766.28;5382461;26;20015;-27
2024/04/10 04:31:14;;;;;;;14.48;6.78;;;;;;;16.86;49.77;99765.69;5402700;26;20000;-27
2024/04/10 04:33:40;;;;;;;22.27;7.20;;;;;;;17.12;48.68;99766.09;5389404;26;19992;-26
2024/04/10 04:36:07;;;;;;;11.02;6.28;;;;;;;17.36;47.43;99764.00;5391572;26;20014;-27
2024/04/10 04:38:33;;;;;;;12.32;6.05;;;;;;;17.78;45.97;99766.19;5382447;26;19996;-26
2024/04/10 04:40:58;;;;;;;10.85;5.97;;;;;;;17.82;45.44;99759.25;5403374;26;19993;-26
2024/04/10 04:43:25;;;;;;;17.63;6.90;;;;;;;18.25;44.36;99773.75;5379805;26;19996;-26
2024/04/10 04:45:51;;;;;;;12.55;6.90;;;;;;;18.29;44.12;99772.19;5386113;26;20022;-27
2024/04/10 04:48:16;;;;;;;15.48;6.63;;;;;;;18.24;44.25;99761.38;5399412;26;20014;-26
2024/04/10 04:50:42;;;;;;;20.50;7.38;;;;;;;18.51;44.35;99765.94;5393392;26;20077;-27
2024/04/10 04:53:11;;;;;;;20.27;7.40;;;;;;;18.98;43.73;99761.75;5393516;26;20117;-26
2024/04/10 04:55:37;;;;;;;23.35;7.45;;;;;;;19.23;43.04;99770.03;5394413;26;20010;-26
2024/04/10 04:58:03;;;;;;;21.00;7.28;;;;;;;19.58;46.45;99762.41;5386590;26;20007;-27
2024/04/10 05:00:29;;;;;;;16.50;7.30;;;;;;;20.04;43.84;99778.81;5382655;26;20020;-27
2024/04/10 05:02:59;;;;;;;21.55;7.22;;;;;;;20.69;42.88;99780.09;5380346;26;20004;-26
2024/04/10 05:05:25;;;;;;;22.95;7.70;;;;;;;21.17;42.06;99784.38;5359811;26;19996;-28
2024/04/10 05:07:51;;;;;;;22.67;7.43;;;;;;;21.48;39.49;99794.09;5382368;26;20028;-27
2024/04/10 05:10:16;;;;;;;18.80;6.85;;;;;;;21.76;38.33;99777.47;5385151;26;19996;-28
2024/04/10 05:12:43;;;;;;;14.45;6.13;;;;;;;22.13;36.88;99790.59;5397548;26;20446;-27
2024/04/10 05:15:15;;;;;;;15.52;6.72;;;;;;;22.50;37.52;99791.22;5395316;26;19992;-26
2024/04/10 05:17:42;;;;;;;13.98;5.57;;;;;;;22.79;36.33;99791.28;5399725;26;20012;-27
2024/04/10 05:20:10;;;;;;;14.07;5.60;;;;;;;22.95;35.83;99792.78;5399855;26;19999;-26
2024/04/10 05:22:37;;;;;;;18.88;11.55;;;;;;;23.13;35.22;99795.91;5394141;26;19996;-27
2024/04/10 05:25:05;;;;;;;24.92;16.73;;;;;;;23.28;35.03;99793.03;5382970;26;20011;-28
2024/04/10 05:27:31;;;;;;;16.40;6.68;;;;;;;23.73;34.16;99803.72;5382863;26;20000;-27
2024/04/10 05:30:07;;;;;;;12.43;4.82;;;;;;;23.98;33.78;99803.44;5382586;26;19996;-27
2024/04/10 05:32:36;;;;;;;11.55;4.65;;;;;;;24.37;31.81;99801.59;5383009;26;20007;-27
2024/04/10 05:35:04;;;;;;;13.20;4.50;;;;;;;24.73;30.82;99809.22;5380886;26;20028;-26
2024/04/10 05:37:30;;;;;;;6.18;3.83;;;;;;;24.87;30.20;99804.63;5370738;26;19996;-28
2024/04/10 05:40:09;;;;;;;12.30;4.32;;;;;;;25.23;30.21;99801.34;5407894;26;19996;-27
2024/04/10 05:42:36;;;;;;;17.50;5.70;;;;;;;25.22;30.39;99807.84;5418746;26;19992;-28
2024/04/10 05:45:03;;;;;;;14.20;5.53;;;;;;;25.14;30.23;99814.00;5417464;26;20003;-27
2024/04/10 05:47:29;;;;;;;11.35;5.40;;;;;;;24.89;30.55;99802.44;5379878;26;20008;-26
2024/04/10 05:49:55;;;;;;;14.60;6.32;;;;;;;25.01;31.35;99806.59;5379044;26;20058;-28
2024/04/10 05:52:21;;;;;;;12.80;6.85;;;;;;;24.91;30.81;99802.94;5381575;26;20008;-27
2024/04/10 05:54:50;;;;;;;17.55;6.60;;;;;;;25.17;30.04;99814.22;5381289;26;19996;-26
2024/04/10 05:57:15;;;;;;;21.83;6.90;;;;;;;25.57;29.67;99794.72;5380788;26;20062;-27
2024/04/10 05:59:40;;;;;;;23.00;7.03;;;;;;;26.02;29.35;99811.28;5375918;26;20008;-27
2024/04/10 06:02:06;;;;;;;16.90;6.88;;;;;;;26.24;28.78;99810.53;5381344;26;20015;-27
2024/04/10 06:04:32;;;;;;;17.05;6.97;;;;;;;25.40;29.91;99798.03;5380957;26;20000;-28
2024/04/10 06:06:57;;;;;;;35.70;10.05;;;;;;;26.07;29.78;99796.75;5380540;26;20408;-27
2024/04/10 06:09:23;;;;;;;19.33;8.40;;;;;;;26.38;29.20;99796.06;5379679;26;19997;-27
2024/04/10 06:11:48;;;;;;;17.67;8.05;;;;;;;26.44;29.15;99790.16;5380444;26;19992;-28
2024/04/10 06:14:14;;;;;;;13.40;5.60;;;;;;;26.55;28.64;99787.22;5380919;26;20158;-27
2024/04/10 06:16:39;;;;;;;9.75;5.55;;;;;;;26.93;30.32;99793.13;5380561;26;19993;-28
2024/04/10 06:19:05;;;;;;;19.17;4.60;;;;;;;27.38;28.14;99787.63;5381616;26;20007;-27
2024/04/10 06:21:30;;;;;;;13.43;4.40;;;;;;;28.01;27.32;99791.06;5381906;26;20004;-27
2024/04/10 06:23:56;;;;;;;9.68;4.65;;;;;;;28.55;26.38;99793.53;5381444;26;19996;-30
2024/04/10 06:26:21;;;;;;;8.52;4.47;;;;;;;28.91;25.55;99786.91;5382088;26;20297;-27
2024/04/10 06:28:46;;;;;;;16.08;4.47;;;;;;;27.32;26.91;99790.78;5381074;26;20425;-27
2024/04/10 06:31:13;;;;;;;11.93;4.20;;;;;;;27.49;26.97;99794.44;5381547;26;19993;-27
2024/04/10 06:33:39;;;;;;;11.52;4.10;;;;;;;27.00;27.48;99806.34;5381033;26;19996;-29
2024/04/10 06:36:05;;;;;;;9.65;3.85;;;;;;;27.39;27.41;99802.88;5381775;26;20020;-27
2024/04/10 06:38:34;;;;;;;12.02;4.30;;;;;;;27.65;25.89;99800.25;5381865;26;20465;-27
2024/04/10 06:41:03;;;;;;;12.95;4.63;;;;;;;27.48;26.17;99805.66;5381311;26;19996;-26
2024/04/10 06:43:29;;;;;;;8.43;3.40;;;;;;;28.20;25.40;99806.38;5381709;26;19996;-28
2024/04/10 06:46:07;;;;;;;8.07;3.20;;;;;;;28.66;24.39;99805.78;5381968;26;20002;-27
2024/04/10 06:48:33;;;;;;;7.28;2.80;;;;;;;28.21;25.17;99802.50;5381696;26;19996;-27
2024/04/10 06:51:05;;;;;;;10.55;2.97;;;;;;;28.39;25.11;99808.81;5381616;26;20033;-27
2024/04/10 06:53:31;;;;;;;13.57;8.23;;;;;;;28.84;24.65;99814.78;5382175;26;19997;-27
2024/04/10 06:55:59;;;;;;;13.07;8.00;;;;;;;28.76;24.41;99820.25;5381849;26;20309;-28
2024/04/10 06:58:25;;;;;;;8.67;5.30;;;;;;;28.88;24.60;99809.44;5381874;26;19992;-27
2024/04/10 07:01:09;;;;;;;9.65;3.50;;;;;;;28.87;24.77;99809.78;5382033;26;20325;-31
2024/04/10 07:03:36;;;;;;;10.20;4.78;;;;;;;29.52;24.23;99813.34;5381720;26;20512;-27
2024/04/10 07:06:03;;;;;;;11.90;7.65;;;;;;;28.13;24.58;99815.03;5379620;26;20004;-28
2024/04/10 07:08:28;;;;;;;10.32;4.53;;;;;;;29.17;24.07;99817.00;5381802;26;20003;-26
2024/04/10 07:10:54;;;;;;;7.90;3.00;;;;;;;29.73;23.04;99819.72;5381699;26;19992;-27
2024/04/10 07:13:19;;;;;;;12.90;3.40;;;;;;;30.29;22.76;99814.06;5381576;26;20042;-27
2024/04/10 07:15:44;;;;;;;10.77;3.60;;;;;;;30.44;22.49;99818.16;5382120;26;19993;-28
2024/04/10 07:18:10;;;;;;;7.85;3.03;;;;;;;30.59;22.47;99817.53;5381341;26;20020;-27
2024/04/10 07:20:35;;;;;;;5.40;2.90;;;;;;;30.88;21.98;99818.59;5381605;26;19992;-27
2024/04/10 07:23:01;;;;;;;7.90;2.75;;;;;;;31.26;22.02;99825.81;5381732;26;20312;-28
2024/04/10 07:25:26;;;;;;;4.35;2.80;;;;;;;29.97;22.65;99824.59;5381451;26;20065;-27
2024/04/10 07:27:52;;;;;;;5.63;2.95;;;;;;;30.57;22.56;99832.75;5381839;26;20003;-26
2024/04/10 07:30:17;;;;;;;7.32;3.00;;;;;;;30.74;22.40;99818.88;5380953;26;20069;-27
2024/04/10 07:32:43;;;;;;;6.10;2.50;;;;;;;30.80;22.07;99830.44;5381109;26;20070;-27
2024/04/10 07:35:09;;;;;;;5.85;2.67;;;;;;;31.27;21.25;99832.91;5381656;26;20313;-28
2024/04/10 07:37:34;;;;;;;17.27;3.35;;;;;;;31.20;21.21;99823.63;5381617;26;20011;-28
2024/04/10 07:40:00;;;;;;;5.28;2.80;;;;;;;31.72;21.08;99825.75;5381087;26;20004;-27
2024/04/10 07:42:26;;;;;;;5.95;2.55;;;;;;;31.50;20.90;99819.56;5380700;26;20015;-31
2024/04/10 07:44:52;;;;;;;4.47;2.63;;;;;;;31.91;20.82;99816.94;5381177;26;19992;-28
2024/04/10 07:47:17;;;;;;;3.55;2.70;;;;;;;32.23;20.72;99819.91;5381081;26;20011;-28
2024/04/10 07:49:43;;;;;;;9.18;3.00;;;;;;;31.19;21.06;99817.34;5381140;26;20455;-30
2024/04/10 07:52:08;;;;;;;4.90;2.63;;;;;;;31.64;20.31;99807.44;5381028;26;19997;-29
2024/04/10 07:54:34;;;;;;;6.18;2.75;;;;;;;31.70;19.95;99815.13;5380849;26;20041;-28
2024/04/10 07:56:59;;;;;;;7.30;2.90;;;;;;;31.67;20.41;99809.50;5379584;26;20403;-29
2024/04/10 07:59:24;;;;;;;4.50;3.10;;;;;;;30.79;21.08;99804.13;5381251;26;20007;-29
2024/04/10 08:01:50;;;;;;;5.93;3.20;;;;;;;31.55;20.79;99802.06;5381264;26;20007;-28
2024/04/10 08:04:16;;;;;;;7.28;4.88;;;;;;;32.13;20.21;99807.44;5379921;26;20332;-27
2024/04/10 08:06:41;;;;;;;8.63;3.00;;;;;;;31.93;19.94;99798.94;5381037;26;19996;-28
2024/04/10 08:09:07;;;;;;;7.40;2.65;;;;;;;32.01;20.63;99801.94;5379149;26;19996;-28
2024/04/10 08:11:33;;;;;;;6.78;2.67;;;;;;;32.58;20.44;99802.84;5380224;26;20007;-28
2024/04/10 08:13:59;;;;;;;8.95;3.03;;;;;;;31.70;20.69;99800.56;5380747;26;20032;-28
2024/04/10 08:16:25;;;;;;;9.30;3.22;;;;;;;32.22;20.49;99790.78;5380232;26;19996;-27
2024/04/10 08:18:50;;;;;;;36.97;4.53;;;;;;;32.80;19.68;99798.72;5379899;26;20317;-26
2024/04/10 08:21:16;;;;;;;6.20;2.70;;;;;;;31.75;20.63;99795.63;5379934;26;20000;-28
2024/04/10 08:23:44;;;;;;;6.18;2.78;;;;;;;31.68;20.59;99786.34;5380890;26;20050;-27
2024/04/10 08:26:10;;;;;;;6.47;2.88;;;;;;;32.38;20.05;99788.88;5380428;26;20516;-27
2024/04/10 08:28:40;;;;;;;7.57;5.05;;;;;;;32.98;19.98;99785.44;5380224;26;20072;-33
2024/04/10 08:31:05;;;;;;;6.13;3.30;;;;;;;30.27;21.78;99779.84;5380176;26;19992;-30
2024/04/10 08:33:31;;;;;;;11.35;3.30;;;;;;;31.38;20.94;99781.06;5382664;26;19992;-28
2024/04/10 08:35:59;;;;;;;5.25;2.70;;;;;;;31.62;20.74;99785.78;5382217;26;20003;-28
2024/04/10 08:38:25;;;;;;;7.40;2.70;;;;;;;31.20;20.66;99782.41;5383698;26;20428;-26
2024/04/10 08:40:53;;;;;;;5.78;2.70;;;;;;;31.22;21.18;99791.09;5383152;26;20039;-29
2024/04/10 08:43:20;;;;;;;6.38;3.00;;;;;;;31.73;20.58;99792.41;5383930;26;19992;-27
2024/04/10 08:45:47;;;;;;;8.85;3.08;;;;;;;30.92;21.05;99781.09;5383356;26;20004;-28
2024/04/10 08:48:13;;;;;;;12.15;3.00;;;;;;;31.51;20.65;99779.94;5383093;26;20329;-28
2024/04/10 08:50:41;;;;;;;7.53;3.20;;;;;;;31.51;20.82;99781.88;5383957;26;20016;-28
2024/04/10 08:53:06;;;;;;;7.70;2.80;;;;;;;32.21;20.29;99778.94;5383217;26;19996;-28
2024/04/10 08:55:34;;;;;;;5.05;2.42;;;;;;;32.07;20.16;99784.06;5383238;26;20003;-32
2024/04/10 08:58:00;;;;;;;4.00;2.42;;;;;;;32.82;19.73;99788.94;5383901;26;20007;-30
2024/04/10 09:00:26;;;;;;;6.40;2.30;;;;;;;33.17;19.34;99776.50;5382976;26;20105;-32
2024/04/10 09:02:51;;;;;;;4.15;2.60;;;;;;;33.19;19.09;99777.75;5382428;26;20004;-30
2024/04/10 09:05:31;;;;;;;4.80;2.70;;;;;;;33.03;19.34;99779.66;5383231;26;20007;-28
2024/04/10 09:08:00;;;;;;;6.13;2.70;;;;;;;33.01;19.58;99784.72;5381113;26;19997;-28
2024/04/10 09:10:26;;;;;;;7.00;2.50;;;;;;;33.52;19.31;99775.78;5383009;26;20072;-29
2024/04/10 09:13:02;;;;;;;6.15;2.90;;;;;;;33.77;19.25;99784.69;5382860;26;19996;-28
2024/04/10 09:15:27;;;;;;;4.47;2.58;;;;;;;33.93;19.28;99779.09;5382816;26;19996;-28
2024/04/10 09:17:56;;;;;;;6.80;2.72;;;;;;;33.56;19.09;99771.94;5382965;26;20073;-28
2024/04/10 09:20:21;;;;;;;;;;;;;;;33.77;18.76;99782.72;5383633;26;20004;-28
2024/04/10 09:23:04;;;;;;;3.80;2.90;;;;;;;33.08;19.15;99774.69;5382945;26;20433;-27
2024/04/10 09:25:33;;;;;;;9.98;2.50;;;;;;;32.05;20.24;99770.63;5383079;26;20374;-27
2024/04/10 09:28:05;;;;;;;12.85;2.90;;;;;;;31.60;19.93;99762.53;5383395;26;20325;-28
2024/04/10 09:30:32;;;;;;;7.88;2.80;;;;;;;31.68;20.75;99759.66;5382360;26;20024;-27
2024/04/10 09:32:59;;;;;;;5.65;3.00;;;;;;;32.22;20.03;99757.75;5382469;26;20020;-27
2024/04/10 09:35:26;;;;;;;11.48;3.60;;;;;;;32.33;19.81;99761.63;5382752;26;20399;-29
2024/04/10 09:37:55;;;;;;;4.85;2.88;;;;;;;31.02;21.03;99759.84;5383065;26;20091;-30
2024/04/10 09:40:24;;;;;;;6.20;2.70;;;;;;;31.36;21.01;99755.88;5383292;26;19992;-29
2024/04/10 09:42:49;;;;;;;6.15;2.55;;;;;;;32.07;20.38;99756.53;5382574;26;19988;-28
2024/04/10 09:45:21;;;;;;;3.53;2.90;;;;;;;32.05;20.58;99756.09;5381790;26;19998;-27
2024/04/10 09:47:50;;;;;;;4.63;2.60;;;;;;;32.88;19.20;99759.19;5382710;26;20073;-27
2024/04/10 09:50:23;;;;;;;7.53;2.90;;;;;;;32.62;19.58;99754.19;5382622;26;19996;-31
2024/04/10 09:52:51;;;;;;;5.57;2.63;;;;;;;32.82;19.82;99744.88;5382788;26;20095;-27
2024/04/10 09:55:17;;;;;;;4.05;2.92;;;;;;;32.44;20.22;99748.94;5382751;26;20038;-27
2024/04/10 09:57:44;;;;;;;6.68;2.80;;;;;;;32.19;20.46;99750.19;5382171;26;19996;-27
2024/04/10 10:00:11;;;;;;;7.25;2.88;;;;;;;32.02;21.06;99737.50;5382146;26;19993;-28
2024/04/10 10:02:37;;;;;;;5.65;2.75;;;;;;;33.13;19.97;99731.50;5382892;26;20003;-27
2024/04/10 10:05:03;;;;;;;4.20;2.47;;;;;;;33.31;19.36;99736.28;5382473;26;19996;-30
2024/04/10 10:07:29;;;;;;;6.47;2.70;;;;;;;31.63;20.34;99734.34;5382204;26;20004;-27
2024/04/10 10:10:05;;;;;;;4.13;2.80;;;;;;;32.67;20.08;99732.69;5383283;26;19996;-27
2024/04/10 10:12:31;;;;;;;5.43;2.85;;;;;;;32.97;19.57;99735.03;5382072;26;20003;-29
2024/04/10 10:15:07;;;;;;;4.28;2.42;;;;;;;33.43;19.07;99729.09;5382642;26;19993;-28
2024/04/10 10:17:32;;;;;;;5.28;3.00;;;;;;;33.42;19.09;99720.00;5382849;26;20003;-29
2024/04/10 10:19:58;;;;;;;7.68;2.50;;;;;;;33.69;18.93;99706.47;5380684;26;19992;-28
2024/04/10 10:22:24;;;;;;;5.60;2.50;;;;;;;33.62;18.92;99717.31;5382461;26;20065;-27
2024/04/10 10:24:59;;;;;;;7.10;2.90;;;;;;;33.91;18.38;99715.19;5382882;26;20347;-28
2024/04/10 10:27:25;;;;;;;15.05;4.10;;;;;;;34.02;18.85;99702.41;5382166;26;20008;-27
2024/04/10 10:30:01;;;;;;;12.75;6.00;;;;;;;34.18;18.49;99714.22;5381928;26;20000;-27
2024/04/10 10:32:26;;;;;;;9.15;3.50;;;;;;;33.80;18.30;99713.03;5382465;26;20028;-26
2024/04/10 10:34:52;;;;;;;7.60;2.80;;;;;;;33.13;19.48;99707.53;5381931;26;20262;-27
2024/04/10 10:37:17;;;;;;;12.85;2.90;;;;;;;33.91;18.20;99718.78;5382259;26;20008;-28
2024/04/10 10:39:43;;;;;;;5.10;2.60;;;;;;;34.09;17.81;99705.34;5381605;26;19992;-27
2024/04/10 10:42:08;;;;;;;6.57;2.80;;;;;;;33.62;18.13;99690.50;5381115;26;19995;-28
2024/04/10 10:44:35;;;;;;;7.38;2.60;;;;;;;33.21;18.00;99702.97;5381508;26;20012;-27
2024/04/10 10:47:06;;;;;;;9.48;2.53;;;;;;;33.01;18.50;99708.34;5381859;26;19996;-29
2024/04/10 10:49:32;;;;;;;7.80;2.55;;;;;;;32.61;19.05;99691.97;5381872;26;20007;-28
2024/04/10 10:51:57;;;;;;;5.75;2.60;;;;;;;32.24;20.00;99695.69;5382435;26;19996;-30
2024/04/10 10:54:23;;;;;;;9.48;3.17;;;;;;;32.55;19.18;99694.16;5381859;26;20104;-26
2024/04/10 10:56:49;;;;;;;7.47;2.53;;;;;;;33.33;18.93;99696.56;5381013;26;20000;-27
2024/04/10 10:59:14;;;;;;;7.65;3.05;;;;;;;33.78;18.46;99693.28;5382502;26;19992;-29
2024/04/10 11:01:41;;;;;;;4.32;2.53;;;;;;;34.09;18.37;99689.56;5382208;26;19996;-28
2024/04/10 11:04:20;;;;;;;6.00;2.30;;;;;;;34.11;18.12;99689.22;5381916;26;20428;-27
2024/04/10 11:06:45;;;;;;;10.40;2.58;;;;;;;34.06;18.00;99682.03;5381440;26;20054;-29
2024/04/10 11:09:12;;;;;;;5.90;2.30;;;;;;;33.48;17.73;99687.44;5381379;26;19992;-27
2024/04/10 11:11:38;;;;;;;6.93;2.38;;;;;;;33.05;18.21;99675.38;5381124;26;20066;-28
2024/04/10 11:14:03;;;;;;;9.35;2.63;;;;;;;33.50;17.95;99682.38;5381727;26;20004;-28
2024/04/10 11:16:33;;;;;;;3.97;2.33;;;;;;;33.94;17.92;99676.63;5381581;26;20004;-27
2024/04/10 11:19:04;;;;;;;4.28;2.40;;;;;;;34.34;18.03;99683.78;5381683;26;19992;-29
2024/04/10 11:21:29;;;;;;;7.25;2.70;;;;;;;34.78;17.33;99677.09;5381466;26;20069;-27
2024/04/10 11:23:55;;;;;;;7.18;2.70;;;;;;;34.70;18.06;99678.13;5381804;26;20440;-27
2024/04/10 11:26:20;;;;;;;7.03;2.67;;;;;;;33.11;18.58;99677.53;5381712;26;20069;-27